LTAS Airport Information

Runway Information
Airport Frequencies
Airport Navaids
Type NDB-DME Name Caycuma Frequency 292 KHZ
Airport Weather Information & NOTAM
ADDS - METARS form results

(2107 UTC 18 January 2020)
Data provider http://aviationweather.gov/metar/data/
 
Forecast for: LTAS (ZONGULDAK , TR)
Text: TAF LTAS 181340Z 1815/1824 VRB02KT 6000 SCT010 BKN025 BKN080
Forecast period: 1500 UTC 18 January 2020 to 0000 UTC 19 January 2020
Forecast type: FROM: standard forecast or significant change
Winds: variable direction winds at 2 MPH (2 knots; 1.0 m/s)
Visibility: 4 miles (6 km)
Ceiling: 2500 feet AGL
Clouds: scattered clouds at 1000 feet AGL
broken clouds at 2500 feet AGL
broken clouds at 8000 feet AGL
Weather: no significant weather forecast for this period